createdAt,value
2018-08-06T00:00:28.294Z,21.10
2018-08-06T00:02:57.339Z,21.10
2018-08-06T00:05:26.338Z,21.10
2018-08-06T00:07:55.342Z,21.00
2018-08-06T00:10:25.535Z,21.00
2018-08-06T00:12:55.081Z,20.80
2018-08-06T00:15:24.241Z,20.80
2018-08-06T00:17:53.459Z,20.70
2018-08-06T00:20:22.454Z,20.80
2018-08-06T00:22:51.579Z,20.80
2018-08-06T00:25:20.550Z,20.70
2018-08-06T00:27:49.537Z,20.60
2018-08-06T00:30:19.725Z,20.50
2018-08-06T00:32:49.587Z,20.40
2018-08-06T00:35:19.077Z,20.30
2018-08-06T00:37:48.042Z,20.30
2018-08-06T00:40:18.502Z,20.30
2018-08-06T00:42:48.077Z,20.30
2018-08-06T00:45:18.645Z,20.30
2018-08-06T00:47:48.079Z,20.20
2018-08-06T00:52:45.687Z,20.00
2018-08-06T00:55:17.706Z,20.00
2018-08-06T00:57:46.704Z,20.00
2018-08-06T01:00:16.662Z,20.00
2018-08-06T01:02:45.674Z,19.90
2018-08-06T01:05:15.367Z,19.90
2018-08-06T01:07:44.767Z,19.90
2018-08-06T01:10:16.714Z,19.80
2018-08-06T01:12:45.927Z,19.80
2018-08-06T01:15:16.970Z,19.80
2018-08-06T01:17:45.985Z,19.80
2018-08-06T01:20:15.201Z,19.70
2018-08-06T01:22:44.867Z,19.60
2018-08-06T01:25:14.375Z,19.60
2018-08-06T01:27:43.469Z,19.50
2018-08-06T01:30:13.706Z,19.40
2018-08-06T01:32:42.887Z,19.20
2018-08-06T01:35:12.126Z,19.20
2018-08-06T01:37:41.134Z,19.20
2018-08-06T01:40:13.131Z,19.20
2018-08-06T01:42:42.255Z,19.10
2018-08-06T01:45:12.602Z,19.10
2018-08-06T01:47:41.635Z,19.10
2018-08-06T01:52:39.709Z,19.00
2018-08-06T01:55:08.683Z,19.00
2018-08-06T01:57:37.667Z,18.90
2018-08-06T02:00:09.462Z,18.80
2018-08-06T02:02:38.538Z,18.70
2018-08-06T02:05:07.990Z,18.70
2018-08-06T02:07:37.266Z,18.70
2018-08-06T02:10:08.077Z,18.60
2018-08-06T02:12:37.050Z,18.50
2018-08-06T02:15:06.887Z,18.40
2018-08-06T02:17:35.920Z,18.30
2018-08-06T02:20:06.016Z,18.30
2018-08-06T02:22:35.059Z,18.30
2018-08-06T02:25:05.169Z,18.20
2018-08-06T02:27:34.154Z,18.30
2018-08-06T02:30:03.166Z,18.20
2018-08-06T02:32:32.184Z,18.00
2018-08-06T02:35:01.152Z,17.90
2018-08-06T02:37:30.130Z,17.80
2018-08-06T02:39:59.098Z,17.60
2018-08-06T02:42:28.083Z,17.60
2018-08-06T02:44:57.195Z,17.60
2018-08-06T02:47:26.154Z,17.50
2018-08-06T02:49:55.282Z,17.60
2018-08-06T02:52:24.258Z,17.70
2018-08-06T02:54:53.346Z,17.60
2018-08-06T02:57:22.550Z,17.60
2018-08-06T02:59:51.517Z,17.50
2018-08-06T03:02:20.482Z,17.40
2018-08-06T03:04:49.446Z,17.40
2018-08-06T03:07:18.449Z,17.50
2018-08-06T03:09:47.519Z,17.50
2018-08-06T03:12:16.526Z,17.50
2018-08-06T03:14:45.611Z,17.50
2018-08-06T03:17:15.456Z,17.60
2018-08-06T03:19:44.441Z,17.50
2018-08-06T03:22:13.446Z,17.40
2018-08-06T03:24:42.438Z,17.40
2018-08-06T03:27:11.422Z,17.40
2018-08-06T03:29:40.462Z,17.50
2018-08-06T03:32:09.471Z,17.40
2018-08-06T03:34:38.486Z,17.20
2018-08-06T03:37:07.509Z,17.20
2018-08-06T03:39:36.503Z,17.20
2018-08-06T03:42:05.752Z,17.20
2018-08-06T03:44:34.786Z,17.20
2018-08-06T03:47:03.782Z,17.20
2018-08-06T03:49:32.890Z,17.10
2018-08-06T03:52:01.907Z,17.10
2018-08-06T03:54:30.919Z,17.10
2018-08-06T03:56:59.930Z,17.10
2018-08-06T03:59:29.634Z,17.00
2018-08-06T04:01:58.706Z,17.00
2018-08-06T04:04:27.719Z,17.20
2018-08-06T04:06:56.730Z,17.10
2018-08-06T04:09:25.765Z,17.10
2018-08-06T04:11:54.772Z,17.00
2018-08-06T04:14:23.770Z,17.00
2018-08-06T04:16:52.763Z,17.00
2018-08-06T04:19:21.816Z,17.10
2018-08-06T04:21:50.806Z,17.00
2018-08-06T04:24:19.783Z,17.10
2018-08-06T04:26:48.762Z,17.10
2018-08-06T04:29:17.746Z,17.10
2018-08-06T04:31:46.726Z,17.00
2018-08-06T04:34:15.706Z,17.10
2018-08-06T04:36:44.687Z,17.00
2018-08-06T04:39:13.710Z,17.00
2018-08-06T04:41:42.758Z,17.00
2018-08-06T04:44:11.709Z,17.10
2018-08-06T04:46:40.730Z,17.10
2018-08-06T04:49:09.777Z,17.20
2018-08-06T04:51:38.746Z,17.20
2018-08-06T04:54:07.775Z,17.10
2018-08-06T04:56:36.786Z,17.00
2018-08-06T04:59:05.823Z,16.90
2018-08-06T05:01:34.790Z,17.00
2018-08-06T05:04:03.775Z,17.00
2018-08-06T05:06:32.760Z,17.10
2018-08-06T05:09:01.743Z,17.20
2018-08-06T05:11:30.750Z,17.20
2018-08-06T05:13:59.986Z,17.20
2018-08-06T05:16:28.999Z,17.20
2018-08-06T05:18:58.046Z,17.20
2018-08-06T05:21:27.167Z,17.30
2018-08-06T05:23:59.394Z,17.40
2018-08-06T05:26:29.423Z,17.50
2018-08-06T05:28:58.422Z,17.60
2018-08-06T05:31:28.182Z,17.90
2018-08-06T05:33:59.162Z,18.00
2018-08-06T05:38:56.854Z,18.30
2018-08-06T05:41:26.598Z,18.40
2018-08-06T05:43:56.085Z,18.40
2018-08-06T05:46:25.210Z,18.60
2018-08-06T05:48:55.147Z,18.70
2018-08-06T05:51:24.217Z,18.90
2018-08-06T05:53:53.206Z,18.90
2018-08-06T05:56:22.212Z,19.00
2018-08-06T05:58:51.258Z,19.10
2018-08-06T06:01:20.266Z,19.20
2018-08-06T06:03:49.338Z,19.30
2018-08-06T06:06:18.386Z,19.30
2018-08-06T06:08:47.467Z,19.40
2018-08-06T06:11:16.446Z,19.50
2018-08-06T06:13:45.874Z,19.50
2018-08-06T06:16:14.902Z,19.40
2018-08-06T06:18:43.890Z,19.40
2018-08-06T06:21:12.911Z,19.40
2018-08-06T06:23:41.973Z,19.50
2018-08-06T06:26:11.050Z,19.60
2018-08-06T06:28:40.246Z,19.70
2018-08-06T06:31:09.046Z,19.80
2018-08-06T06:33:38.130Z,19.90
2018-08-06T06:36:07.098Z,20.00
2018-08-06T06:38:36.099Z,20.00
2018-08-06T06:41:05.034Z,20.10
2018-08-06T06:43:34.135Z,20.20
2018-08-06T06:46:03.127Z,20.30
2018-08-06T06:48:32.138Z,20.40
2018-08-06T06:51:01.184Z,20.50
2018-08-06T06:53:30.154Z,20.80
2018-08-06T06:55:59.175Z,21.10
2018-08-06T06:58:28.145Z,21.40
2018-08-06T07:00:57.141Z,21.50
2018-08-06T07:03:26.178Z,21.80
2018-08-06T07:05:56.031Z,22.00
2018-08-06T07:08:24.985Z,22.50
2018-08-06T07:10:53.978Z,23.50
2018-08-06T07:13:23.047Z,24.10
2018-08-06T07:15:52.031Z,24.80
2018-08-06T07:18:20.994Z,26.00
2018-08-06T07:20:49.978Z,26.40
2018-08-06T07:23:19.030Z,27.30
2018-08-06T07:25:48.043Z,28.10
2018-08-06T07:28:17.070Z,28.50
2018-08-06T07:30:46.066Z,29.50
2018-08-06T07:33:15.184Z,30.10
2018-08-06T07:35:44.183Z,30.80
2018-08-06T07:38:13.141Z,30.60
2018-08-06T07:40:42.138Z,30.80
2018-08-06T07:45:39.878Z,31.10
2018-08-06T07:48:09.160Z,31.30
2018-08-06T07:50:38.182Z,31.80
2018-08-06T07:53:07.635Z,32.50
2018-08-06T07:55:36.601Z,32.90
2018-08-06T07:58:05.849Z,32.90
2018-08-06T08:00:34.874Z,33.30
2018-08-06T08:03:04.159Z,33.90
2018-08-06T08:05:33.175Z,33.70
2018-08-06T08:08:02.514Z,33.60
2018-08-06T08:10:31.522Z,34.30
2018-08-06T08:13:00.766Z,34.70
2018-08-06T08:15:30.232Z,34.60
2018-08-06T08:17:59.185Z,35.30
2018-08-06T08:20:28.154Z,35.40
2018-08-06T08:22:57.216Z,35.50
2018-08-06T08:25:26.554Z,34.90
2018-08-06T08:27:55.602Z,34.40
2018-08-06T08:30:24.999Z,34.60
2018-08-06T08:32:55.052Z,35.60
2018-08-06T08:35:30.620Z,36.20
2018-08-06T08:37:59.745Z,36.70
2018-08-06T08:40:28.947Z,36.50
2018-08-06T08:42:57.987Z,37.40
2018-08-06T08:45:26.971Z,37.50
2018-08-06T08:47:55.926Z,36.10
2018-08-06T08:50:25.031Z,35.90
2018-08-06T08:52:54.035Z,36.50
2018-08-06T08:55:23.003Z,37.20
2018-08-06T08:57:52.012Z,36.00
2018-08-06T09:00:22.277Z,35.40
2018-08-06T09:02:52.185Z,35.10
2018-08-06T09:05:21.462Z,35.50
2018-08-06T09:07:51.170Z,35.10
2018-08-06T09:10:21.361Z,34.50
2018-08-06T09:12:50.315Z,34.40
2018-08-06T09:15:21.458Z,34.20
2018-08-06T09:17:50.437Z,33.30
2018-08-06T09:20:19.495Z,33.10
2018-08-06T09:22:48.571Z,32.50
2018-08-06T09:25:20.199Z,31.80
2018-08-06T09:27:50.035Z,31.50
2018-08-06T09:30:20.358Z,30.90
2018-08-06T09:32:52.638Z,30.20
2018-08-06T09:35:22.051Z,29.90
2018-08-06T09:37:51.119Z,29.80
2018-08-06T09:40:21.200Z,29.60
2018-08-06T09:42:50.703Z,29.60
2018-08-06T09:45:20.746Z,29.40
2018-08-06T09:47:50.955Z,29.30
2018-08-06T09:50:21.387Z,29.00
2018-08-06T09:52:51.362Z,29.20
2018-08-06T09:55:23.513Z,29.10
2018-08-06T09:57:52.809Z,29.10
2018-08-06T10:00:27.905Z,29.10
2018-08-06T10:02:59.487Z,29.20
2018-08-06T10:05:29.087Z,29.10
2018-08-06T10:07:58.361Z,29.10
2018-08-06T10:10:27.372Z,28.90
2018-08-06T10:12:56.430Z,28.80
2018-08-06T10:15:25.469Z,28.80
2018-08-06T10:17:55.099Z,28.70
2018-08-06T10:20:25.138Z,28.60
2018-08-06T10:22:54.120Z,28.60
2018-08-06T10:25:23.468Z,28.70
2018-08-06T10:27:52.454Z,28.90
2018-08-06T10:30:22.557Z,28.90
2018-08-06T10:32:51.522Z,28.90
2018-08-06T10:35:20.942Z,28.90
2018-08-06T10:37:49.997Z,28.90
2018-08-06T10:40:20.422Z,28.90
2018-08-06T10:42:49.465Z,28.90
2018-08-06T10:45:20.558Z,29.00
2018-08-06T10:47:50.067Z,29.00
2018-08-06T10:50:19.193Z,29.00
2018-08-06T10:52:48.162Z,28.80
2018-08-06T10:55:17.207Z,28.80
2018-08-06T10:57:46.669Z,29.00
2018-08-06T11:00:18.418Z,29.30
2018-08-06T11:02:48.299Z,29.20
2018-08-06T11:05:18.048Z,29.20
2018-08-06T11:07:47.054Z,29.20
2018-08-06T11:10:17.476Z,29.10
2018-08-06T11:12:46.446Z,29.20
2018-08-06T11:15:17.236Z,29.10
2018-08-06T11:17:46.392Z,29.10
2018-08-06T11:20:16.206Z,29.30
2018-08-06T11:22:45.268Z,29.30
2018-08-06T11:25:15.577Z,29.40
2018-08-06T11:27:44.593Z,29.50
2018-08-06T11:30:15.428Z,29.60
2018-08-06T11:32:44.919Z,29.60
2018-08-06T11:35:14.470Z,29.50
2018-08-06T11:37:43.593Z,29.50
2018-08-06T11:40:13.627Z,29.50
2018-08-06T11:42:43.301Z,29.70
2018-08-06T11:45:15.210Z,29.80
2018-08-06T11:47:44.541Z,29.80
2018-08-06T11:50:13.521Z,29.80
2018-08-06T11:52:42.550Z,29.80
2018-08-06T11:55:11.778Z,29.80
2018-08-06T11:57:40.783Z,29.90
2018-08-06T12:00:20.594Z,30.10
2018-08-06T12:02:49.711Z,29.90
2018-08-06T12:05:18.708Z,30.10
2018-08-06T12:10:26.718Z,30.40
2018-08-06T12:12:55.783Z,30.30
2018-08-06T12:15:24.756Z,30.10
2018-08-06T12:17:53.698Z,30.00
2018-08-06T12:20:22.672Z,30.20
2018-08-06T12:22:51.991Z,30.50
2018-08-06T12:25:20.976Z,30.50
2018-08-06T12:27:50.181Z,30.50
2018-08-06T12:30:20.274Z,30.40
2018-08-06T12:32:50.043Z,30.70
2018-08-06T12:35:19.072Z,30.80
2018-08-06T12:37:48.409Z,31.00
2018-08-06T12:40:18.707Z,31.00
2018-08-06T12:42:47.754Z,31.30
2018-08-06T12:45:17.234Z,31.50
2018-08-06T12:47:46.629Z,31.70
2018-08-06T12:50:16.429Z,31.40
2018-08-06T12:52:45.486Z,31.90
2018-08-06T12:55:15.994Z,31.90
2018-08-06T12:57:45.254Z,31.60
2018-08-06T13:00:17.062Z,31.90
2018-08-06T13:02:46.686Z,32.00
2018-08-06T13:05:16.000Z,32.30
2018-08-06T13:07:45.007Z,32.40
2018-08-06T13:10:14.230Z,32.50
2018-08-06T13:12:43.892Z,32.90
2018-08-06T13:15:13.983Z,32.70
2018-08-06T13:17:42.963Z,32.90
2018-08-06T13:20:12.090Z,33.60
2018-08-06T13:22:41.066Z,33.80
2018-08-06T13:25:11.400Z,34.80
2018-08-06T13:27:40.519Z,34.90
2018-08-06T13:30:11.426Z,36.20
2018-08-06T13:32:40.834Z,36.80
2018-08-06T13:35:10.304Z,38.20
2018-08-06T13:37:39.303Z,38.50
2018-08-06T13:40:08.879Z,39.30
2018-08-06T13:42:37.882Z,38.80
2018-08-06T13:45:08.563Z,40.70
2018-08-06T13:47:37.610Z,41.90
2018-08-06T13:50:07.082Z,42.80
2018-08-06T13:52:36.487Z,42.50
2018-08-06T13:55:06.531Z,42.90
2018-08-06T13:57:35.547Z,42.10
2018-08-06T14:00:08.838Z,42.50
2018-08-06T14:02:37.823Z,44.00
2018-08-06T14:05:07.727Z,44.80
2018-08-06T14:07:36.720Z,44.60
2018-08-06T14:10:06.503Z,44.80
2018-08-06T14:12:35.522Z,45.70
2018-08-06T14:15:05.338Z,44.00
2018-08-06T14:17:34.374Z,43.40
2018-08-06T14:20:03.643Z,43.00
2018-08-06T14:22:32.632Z,42.90
2018-08-06T14:25:01.644Z,43.20
2018-08-06T14:27:30.638Z,43.70
2018-08-06T14:29:59.603Z,44.00
2018-08-06T14:32:28.702Z,44.80
2018-08-06T14:34:57.666Z,43.90
2018-08-06T14:37:26.742Z,43.70
2018-08-06T14:39:55.714Z,44.00
2018-08-06T14:42:24.759Z,44.80
2018-08-06T14:44:53.791Z,44.10
2018-08-06T14:47:22.767Z,45.60
2018-08-06T14:49:51.818Z,44.70
2018-08-06T14:52:20.966Z,43.90
2018-08-06T14:54:49.927Z,42.80
2018-08-06T14:57:18.894Z,42.50
2018-08-06T14:59:47.903Z,42.70
2018-08-06T15:02:17.116Z,42.10
2018-08-06T15:04:46.093Z,41.60
2018-08-06T15:07:15.090Z,40.40
2018-08-06T15:09:44.098Z,39.50
2018-08-06T15:12:13.086Z,38.90
2018-08-06T15:14:42.099Z,38.20
2018-08-06T15:17:11.125Z,37.70
2018-08-06T15:19:40.055Z,36.80
2018-08-06T15:22:09.031Z,36.80
2018-08-06T15:24:38.006Z,37.00
2018-08-06T15:27:06.981Z,37.30
2018-08-06T15:29:36.063Z,38.60
2018-08-06T15:32:05.319Z,39.10
2018-08-06T15:34:34.234Z,39.20
2018-08-06T15:37:03.214Z,39.20
2018-08-06T15:39:32.318Z,38.50
2018-08-06T15:42:01.288Z,37.80
2018-08-06T15:44:30.251Z,37.10
2018-08-06T15:46:59.206Z,36.80
2018-08-06T15:49:28.182Z,36.60
2018-08-06T15:51:57.150Z,37.50
2018-08-06T15:54:26.134Z,38.40
2018-08-06T15:56:55.166Z,38.80
2018-08-06T15:59:24.147Z,39.30
2018-08-06T16:01:53.177Z,39.70
2018-08-06T16:04:22.106Z,40.50
2018-08-06T16:06:51.174Z,40.60
2018-08-06T16:09:20.161Z,40.80
2018-08-06T16:11:49.534Z,41.60
2018-08-06T16:14:18.564Z,42.20
2018-08-06T16:16:47.626Z,42.50
2018-08-06T16:19:16.601Z,43.10
2018-08-06T16:21:45.598Z,43.40
2018-08-06T16:24:14.602Z,43.90
2018-08-06T16:26:43.594Z,43.60
2018-08-06T16:29:12.641Z,43.50
2018-08-06T16:31:41.602Z,43.30
2018-08-06T16:34:10.578Z,43.50
2018-08-06T16:36:39.605Z,43.40
2018-08-06T16:39:12.208Z,42.30
2018-08-06T16:41:41.282Z,42.30
2018-08-06T16:44:10.774Z,41.40
2018-08-06T16:46:39.829Z,40.20
2018-08-06T16:49:08.822Z,39.40
2018-08-06T16:51:37.819Z,38.90
2018-08-06T16:54:07.366Z,38.40
2018-08-06T16:56:36.401Z,38.10
2018-08-06T16:59:05.574Z,37.90
2018-08-06T17:01:34.607Z,37.90
2018-08-06T17:04:03.783Z,37.30
2018-08-06T17:06:33.089Z,36.90
2018-08-06T17:09:02.258Z,36.30
2018-08-06T17:11:31.408Z,36.10
2018-08-06T17:14:00.608Z,35.60
2018-08-06T17:16:29.571Z,35.70
2018-08-06T17:18:58.598Z,35.30
2018-08-06T17:21:27.618Z,35.10
2018-08-06T17:23:56.680Z,34.40
2018-08-06T17:26:25.886Z,34.40
2018-08-06T17:28:55.164Z,34.30
2018-08-06T17:31:25.007Z,34.20
2018-08-06T17:33:54.295Z,34.00
2018-08-06T17:36:23.520Z,33.90
2018-08-06T17:38:52.906Z,34.10
2018-08-06T17:41:22.397Z,34.10
2018-08-06T17:43:51.878Z,33.90
2018-08-06T17:46:20.878Z,33.70
2018-08-06T17:48:49.858Z,33.40
2018-08-06T17:51:19.250Z,33.20
2018-08-06T17:53:49.827Z,33.10
2018-08-06T17:56:19.693Z,33.00
2018-08-06T17:58:49.923Z,32.80
2018-08-06T18:01:19.150Z,32.60
2018-08-06T18:03:48.344Z,32.70
2018-08-06T18:08:49.363Z,32.40
2018-08-06T18:11:18.506Z,32.30
2018-08-06T18:13:47.622Z,32.10
2018-08-06T18:16:17.734Z,32.00
2018-08-06T18:18:46.778Z,32.00
2018-08-06T18:21:16.398Z,32.00
2018-08-06T18:23:45.462Z,31.90
2018-08-06T18:26:14.462Z,31.70
2018-08-06T18:28:43.637Z,31.60
2018-08-06T18:31:12.620Z,31.50
2018-08-06T18:33:41.707Z,31.50
2018-08-06T18:36:10.896Z,31.40
2018-08-06T18:38:39.854Z,31.30
2018-08-06T18:41:08.905Z,31.20
2018-08-06T18:43:37.946Z,31.00
2018-08-06T18:46:07.063Z,30.90
2018-08-06T18:48:36.023Z,30.90
2018-08-06T18:51:05.009Z,30.70
2018-08-06T18:53:34.011Z,30.60
2018-08-06T18:56:03.030Z,30.60
2018-08-06T18:58:32.137Z,30.50
2018-08-06T19:01:01.174Z,30.30
2018-08-06T19:03:30.147Z,30.10
2018-08-06T19:05:59.154Z,30.10
2018-08-06T19:08:29.121Z,30.00
2018-08-06T19:10:58.166Z,29.80
2018-08-06T19:13:33.474Z,29.70
2018-08-06T19:16:02.446Z,29.50
2018-08-06T19:18:36.808Z,29.30
2018-08-06T19:21:05.784Z,29.20
2018-08-06T19:23:34.863Z,29.10
2018-08-06T19:26:03.910Z,29.00
2018-08-06T19:28:32.851Z,28.80
2018-08-06T19:31:07.400Z,28.80
2018-08-06T19:33:36.354Z,28.70
2018-08-06T19:36:05.383Z,28.70
2018-08-06T19:38:34.543Z,28.70
2018-08-06T19:41:03.522Z,28.60
2018-08-06T19:43:38.077Z,28.60
2018-08-06T19:46:07.944Z,28.50
2018-08-06T19:48:36.998Z,28.30
2018-08-06T19:51:06.114Z,28.20
2018-08-06T19:53:35.442Z,28.10
2018-08-06T19:56:10.804Z,27.90
2018-08-06T19:58:40.039Z,27.80
2018-08-06T20:01:09.167Z,27.80
2018-08-06T20:03:38.242Z,27.80
2018-08-06T20:06:07.370Z,27.70
2018-08-06T20:08:36.362Z,27.50
2018-08-06T20:11:06.444Z,27.40
2018-08-06T20:13:36.367Z,27.30
2018-08-06T20:16:05.561Z,27.10
2018-08-06T20:18:34.545Z,27.00
2018-08-06T20:21:03.525Z,26.80
2018-08-06T20:23:32.554Z,26.80
2018-08-06T20:26:01.672Z,26.70
2018-08-06T20:28:30.654Z,26.60
2018-08-06T20:30:59.670Z,26.50
2018-08-06T20:33:28.695Z,26.40
2018-08-06T20:35:57.697Z,26.40
2018-08-06T20:38:26.743Z,26.30
2018-08-06T20:40:55.703Z,26.20
2018-08-06T20:43:24.691Z,26.30
2018-08-06T20:45:53.689Z,26.30
2018-08-06T20:48:22.770Z,26.30
2018-08-06T20:50:51.797Z,26.30
2018-08-06T20:53:20.782Z,26.30
2018-08-06T20:55:49.797Z,26.30
2018-08-06T20:58:18.962Z,26.30
2018-08-06T21:00:48.074Z,26.20
2018-08-06T21:03:17.103Z,26.20
2018-08-06T21:05:47.454Z,26.10
2018-08-06T21:08:16.634Z,26.00
2018-08-06T21:10:47.562Z,26.00
2018-08-06T21:13:16.893Z,25.90
2018-08-06T21:15:46.281Z,25.90
2018-08-06T21:18:15.670Z,25.80
2018-08-06T21:20:44.857Z,25.70
2018-08-06T21:23:13.835Z,25.70
2018-08-06T21:25:42.822Z,25.60
2018-08-06T21:28:11.862Z,25.60
2018-08-06T21:30:40.859Z,25.60
2018-08-06T21:33:10.170Z,25.40
2018-08-06T21:35:39.158Z,25.40
2018-08-06T21:38:08.190Z,25.30
2018-08-06T21:40:37.258Z,25.20
2018-08-06T21:43:06.466Z,25.20
2018-08-06T21:45:36.481Z,25.20
2018-08-06T21:48:05.862Z,25.20
2018-08-06T21:50:35.768Z,25.20
2018-08-06T21:53:05.941Z,25.20
2018-08-06T21:55:34.902Z,25.20
2018-08-06T21:58:04.139Z,25.10
2018-08-06T22:00:40.199Z,25.10
2018-08-06T22:03:11.799Z,25.10
2018-08-06T22:05:40.842Z,25.00
2018-08-06T22:08:09.926Z,25.00
2018-08-06T22:10:39.146Z,24.90
2018-08-06T22:13:08.733Z,24.90
2018-08-06T22:15:37.774Z,24.80
2018-08-06T22:18:07.942Z,24.80
2018-08-06T22:20:36.950Z,24.70
2018-08-06T22:23:06.176Z,24.70
2018-08-06T22:25:35.282Z,24.60
2018-08-06T22:28:04.666Z,24.50
2018-08-06T22:30:33.710Z,24.40
2018-08-06T22:33:02.699Z,24.40
2018-08-06T22:35:31.749Z,24.40
2018-08-06T22:38:00.806Z,24.30
2018-08-06T22:40:29.778Z,24.30
2018-08-06T22:42:58.848Z,24.30
2018-08-06T22:45:27.895Z,24.30
2018-08-06T22:47:57.064Z,24.30
2018-08-06T22:50:26.380Z,24.20
2018-08-06T22:52:55.466Z,24.10
2018-08-06T22:55:24.419Z,24.00
2018-08-06T22:57:53.410Z,23.90
2018-08-06T23:00:22.495Z,23.90
2018-08-06T23:02:51.391Z,23.80
2018-08-06T23:05:20.498Z,23.70
2018-08-06T23:07:49.506Z,23.70
2018-08-06T23:10:18.752Z,23.60
2018-08-06T23:12:47.678Z,23.60
2018-08-06T23:15:16.949Z,23.60
2018-08-06T23:17:46.251Z,23.60
2018-08-06T23:20:15.205Z,23.50
2018-08-06T23:22:44.173Z,23.50
2018-08-06T23:25:13.143Z,23.50
2018-08-06T23:27:42.142Z,23.50
2018-08-06T23:30:13.691Z,23.50
2018-08-06T23:32:42.947Z,23.40
2018-08-06T23:35:12.918Z,23.40
2018-08-06T23:37:42.878Z,23.40
2018-08-06T23:40:12.798Z,23.40
2018-08-06T23:42:42.398Z,23.40
2018-08-06T23:45:12.915Z,23.40
2018-08-06T23:47:41.995Z,23.30
2018-08-06T23:50:12.490Z,23.30
2018-08-06T23:52:42.658Z,23.30
2018-08-06T23:55:12.881Z,23.40
2018-08-06T23:57:42.195Z,23.30
